Time;durP1;ratioP1;P1;durP2;ratioP2;P2;SDS_P1;SDS_P2;PMS_P1;PMS_P2;Temp;Humidity;BMP_temperature;BMP_pressure;BME280_temperature;BME280_humidity;BME280_pressure;Samples;Min_cycle;Max_cycle;Signal;HPM_P1;HPM_P2
2022/08/25 00:00:00;;;;;;;4.72;2.60;;;;;;;24.84;43.69;100606.28;4156197;28;20059;-69
2022/08/25 00:02:08;;;;;;;4.70;2.58;;;;;;;24.80;44.12;100598.50;4156302;28;20046;-68
2022/08/25 00:04:14;;;;;;;3.13;2.30;;;;;;;24.78;43.87;100600.34;4140382;28;20492;-69
2022/08/25 00:06:17;;;;;;;5.07;2.85;;;;;;;24.74;43.87;100597.84;4143960;28;20041;-69
2022/08/25 00:08:20;;;;;;;5.93;3.00;;;;;;;24.75;43.86;100598.72;4139223;28;20448;-69
2022/08/25 00:10:23;;;;;;;5.93;2.92;;;;;;;24.72;43.91;100597.03;4161622;28;20061;-69
2022/08/25 00:12:25;;;;;;;6.18;2.80;;;;;;;24.73;43.94;100597.91;4140184;28;20499;-68
2022/08/25 00:14:32;;;;;;;4.28;2.90;;;;;;;24.74;43.97;100597.84;4132591;28;20127;-69
2022/08/25 00:16:35;;;;;;;5.18;3.00;;;;;;;24.71;43.93;100597.97;4139215;28;21290;-69
2022/08/25 00:18:38;;;;;;;4.15;2.65;;;;;;;24.70;44.27;100603.34;4140339;28;20412;-69
2022/08/25 00:20:41;;;;;;;3.45;2.45;;;;;;;24.67;44.30;100604.34;4136201;28;20046;-69
2022/08/25 00:22:51;;;;;;;4.60;2.95;;;;;;;24.65;44.59;100606.22;4140177;28;20038;-69
2022/08/25 00:24:53;;;;;;;4.95;3.20;;;;;;;24.64;44.74;100601.81;4130807;28;20042;-69
2022/08/25 00:26:58;;;;;;;4.95;2.90;;;;;;;24.62;44.67;100606.34;4134080;28;20042;-69
2022/08/25 00:29:01;;;;;;;5.60;3.10;;;;;;;24.61;44.90;100607.25;4139659;28;20550;-69
2022/08/25 00:31:06;;;;;;;4.28;2.78;;;;;;;24.60;45.12;100599.34;4139352;28;20050;-69
2022/08/25 00:33:10;;;;;;;3.78;2.75;;;;;;;24.56;45.04;100606.53;4140131;28;20512;-69
2022/08/25 00:35:13;;;;;;;4.80;3.17;;;;;;;24.52;45.05;100607.63;4136569;28;20042;-69
2022/08/25 00:37:17;;;;;;;4.47;3.05;;;;;;;24.48;44.96;100601.56;4138221;28;20744;-68
2022/08/25 00:39:20;;;;;;;5.47;3.15;;;;;;;24.47;45.20;100602.47;4143689;28;20042;-69
2022/08/25 00:41:24;;;;;;;4.38;3.47;;;;;;;24.46;45.16;100599.88;4137598;28;20492;-69
2022/08/25 00:43:27;;;;;;;4.35;3.05;;;;;;;24.41;45.38;100602.72;4136193;28;20049;-69
2022/08/25 00:45:30;;;;;;;5.57;3.38;;;;;;;24.45;45.50;100614.13;4139637;28;20045;-69
2022/08/25 00:47:35;;;;;;;8.10;3.33;;;;;;;24.46;45.22;100605.19;4146548;28;20042;-69
2022/08/25 00:49:40;;;;;;;5.05;3.13;;;;;;;24.45;45.59;100601.69;4139004;28;20034;-69
2022/08/25 00:51:46;;;;;;;4.93;3.03;;;;;;;24.42;45.56;100603.63;4133138;28;20039;-69
2022/08/25 00:53:50;;;;;;;3.50;2.60;;;;;;;24.40;45.62;100595.72;4135266;28;20130;-69
2022/08/25 00:55:53;;;;;;;3.88;2.50;;;;;;;24.38;45.72;100602.88;4134618;28;20037;-69
2022/08/25 00:57:59;;;;;;;4.88;2.95;;;;;;;24.37;45.78;100607.31;4134793;28;20496;-69
2022/08/25 01:00:07;;;;;;;7.30;3.40;;;;;;;24.33;46.12;100607.53;4145978;28;20037;-69
2022/08/25 01:02:11;;;;;;;7.32;3.10;;;;;;;24.29;46.25;100604.09;4143634;28;20044;-69
2022/08/25 01:04:17;;;;;;;6.68;3.45;;;;;;;24.28;46.28;100604.16;4149173;28;20140;-69
2022/08/25 01:06:21;;;;;;;5.22;3.58;;;;;;;24.25;46.36;100602.50;4142347;28;20046;-69
2022/08/25 01:08:27;;;;;;;6.95;3.65;;;;;;;24.26;46.35;100604.22;4139161;28;20411;-70
2022/08/25 01:10:31;;;;;;;3.60;2.83;;;;;;;24.21;46.32;100607.09;4135141;28;20042;-69
2022/08/25 01:12:35;;;;;;;3.35;2.97;;;;;;;24.17;46.45;100608.13;4142412;28;20037;-69
2022/08/25 01:14:38;;;;;;;5.13;3.63;;;;;;;24.16;46.65;100602.88;4141078;28;20040;-68
2022/08/25 01:16:42;;;;;;;6.18;3.33;;;;;;;24.14;46.89;100607.41;4140318;28;20042;-68
2022/08/25 01:18:47;;;;;;;;;;;;;;;23.94;47.13;100608.19;4136278;28;20112;-68
2022/08/25 01:20:52;;;;;;;4.25;2.83;;;;;;;24.01;47.12;100609.66;4145763;28;20396;-68
2022/08/25 01:22:56;;;;;;;5.07;3.28;;;;;;;24.02;47.26;100599.00;4139254;28;20040;-68
2022/08/25 01:25:03;;;;;;;5.13;3.05;;;;;;;24.00;47.35;100613.25;4139182;28;20045;-69
2022/08/25 01:27:06;;;;;;;5.70;3.42;;;;;;;23.96;47.62;100599.25;4147226;28;20129;-69
2022/08/25 01:29:24;;;;;;;5.43;2.90;;;;;;;23.98;47.58;100607.13;4140676;28;20056;-68
2022/08/25 01:31:28;;;;;;;8.63;3.78;;;;;;;23.94;47.55;100611.69;4145915;28;20407;-68
2022/08/25 01:33:31;;;;;;;5.32;3.00;;;;;;;23.93;47.63;100604.63;4138684;28;20042;-69
2022/08/25 01:35:34;;;;;;;9.18;3.13;;;;;;;23.93;47.59;100609.09;4138358;28;20390;-68
2022/08/25 01:37:38;;;;;;;9.60;3.30;;;;;;;23.89;47.90;100608.38;4143162;28;20065;-68
2022/08/25 01:39:43;;;;;;;4.32;2.70;;;;;;;23.87;47.83;100607.53;4135041;28;20045;-69
2022/08/25 01:41:53;;;;;;;;;;;;;;;23.70;48.29;100600.22;4143151;28;20121;-68
2022/08/25 01:43:56;;;;;;;5.60;3.03;;;;;;;23.75;48.27;100608.00;4136903;28;19925;-69
2022/08/25 01:45:59;;;;;;;5.85;3.03;;;;;;;23.81;48.15;100605.09;4140374;28;20455;-68
2022/08/25 01:48:03;;;;;;;5.45;2.83;;;;;;;23.80;48.12;100611.31;4139112;28;20129;-69
2022/08/25 01:50:07;;;;;;;4.28;2.80;;;;;;;23.78;48.40;100608.72;4145677;28;20120;-69
2022/08/25 01:52:14;;;;;;;4.90;2.92;;;;;;;23.76;48.29;100609.72;4141372;28;20065;-68
2022/08/25 01:54:19;;;;;;;5.25;3.03;;;;;;;23.75;48.42;100618.63;4134330;28;20134;-68
2022/08/25 01:56:22;;;;;;;;;;;;;;;23.54;49.05;100613.19;4139217;28;20455;-68
2022/08/25 01:58:30;;;;;;;5.07;3.00;;;;;;;23.59;48.87;100611.22;4139636;28;19929;-68
2022/08/25 02:00:33;;;;;;;5.32;3.33;;;;;;;23.56;48.91;100608.69;4135405;28;20521;-69
2022/08/25 02:02:36;;;;;;;5.38;3.47;;;;;;;23.51;49.26;100615.97;4138756;28;20043;-68
2022/08/25 02:04:44;;;;;;;3.63;2.75;;;;;;;23.43;49.36;100612.72;4160683;28;20503;-68
2022/08/25 02:06:48;;;;;;;3.83;2.95;;;;;;;23.44;49.32;100619.78;4145333;28;20049;-69
2022/08/25 02:08:51;;;;;;;4.80;3.25;;;;;;;23.42;49.72;100613.63;4138478;28;20128;-69
2022/08/25 02:10:56;;;;;;;5.05;3.00;;;;;;;23.41;49.84;100617.19;4141327;28;20044;-69
2022/08/25 02:12:59;;;;;;;4.60;3.13;;;;;;;23.36;49.85;100612.06;4143393;28;20037;-68
2022/08/25 02:15:02;;;;;;;7.05;3.20;;;;;;;23.38;49.98;100610.25;4138665;28;20061;-69
2022/08/25 02:17:05;;;;;;;4.93;3.30;;;;;;;23.44;49.68;100614.47;4143911;28;20088;-69
2022/08/25 02:19:11;;;;;;;5.07;3.28;;;;;;;23.40;49.65;100607.53;4145471;28;20053;-69
2022/08/25 02:21:14;;;;;;;8.60;3.78;;;;;;;23.41;49.64;100603.94;4138976;28;20049;-69
2022/08/25 02:23:17;;;;;;;6.15;3.08;;;;;;;23.39;49.42;100601.34;4120825;28;20053;-69
2022/08/25 02:25:20;;;;;;;4.45;3.30;;;;;;;23.42;48.93;100603.03;4139153;28;20049;-69
2022/08/25 02:27:24;;;;;;;5.53;3.97;;;;;;;23.39;49.15;100611.97;4145637;28;20038;-69
2022/08/25 02:29:27;;;;;;;7.85;3.05;;;;;;;23.38;48.77;100609.34;4143727;28;20128;-69
2022/08/25 02:31:30;;;;;;;7.35;2.92;;;;;;;23.27;48.86;100607.97;4137736;28;20049;-69
2022/08/25 02:33:33;;;;;;;4.13;2.88;;;;;;;23.27;48.97;100607.13;4138048;28;20026;-68
2022/08/25 02:35:37;;;;;;;5.40;3.25;;;;;;;23.26;48.87;100600.94;4137554;28;20034;-69
2022/08/25 02:37:39;;;;;;;8.73;3.38;;;;;;;23.26;48.81;100605.38;4140635;28;20038;-69
2022/08/25 02:39:42;;;;;;;7.75;2.97;;;;;;;23.23;48.71;100606.38;4137051;28;20057;-69
2022/08/25 02:41:45;;;;;;;4.93;2.97;;;;;;;23.25;48.42;100601.00;4139553;28;20052;-69
2022/08/25 02:43:50;;;;;;;5.15;3.20;;;;;;;23.22;48.30;100604.63;4138252;28;20034;-69
2022/08/25 02:45:54;;;;;;;6.40;3.35;;;;;;;23.18;48.47;100603.00;4138953;28;20041;-69
2022/08/25 02:47:57;;;;;;;8.82;3.30;;;;;;;23.12;48.38;100598.78;4143686;28;20049;-68
2022/08/25 02:50:00;;;;;;;6.78;3.25;;;;;;;23.06;48.87;100608.72;4146102;28;20065;-68
2022/08/25 02:52:04;;;;;;;7.57;3.40;;;;;;;23.02;48.46;100590.25;4138919;28;20459;-68
2022/08/25 02:54:07;;;;;;;8.32;3.75;;;;;;;23.00;48.00;100600.06;4133585;28;20592;-68
2022/08/25 02:56:11;;;;;;;5.10;3.00;;;;;;;22.99;48.13;100597.47;4146133;28;20041;-68
2022/08/25 02:58:14;;;;;;;;;;;;;;;22.80;48.17;100598.09;4142506;28;20069;-69
2022/08/25 03:00:19;;;;;;;7.63;3.08;;;;;;;22.86;48.18;100599.66;4146576;28;19921;-68
2022/08/25 03:02:22;;;;;;;5.88;3.60;;;;;;;22.86;49.04;100599.66;4139020;28;20068;-68
2022/08/25 03:04:24;;;;;;;6.30;3.40;;;;;;;22.80;49.30;100597.25;4141528;28;20056;-68
2022/08/25 03:06:28;;;;;;;7.55;3.30;;;;;;;22.82;49.28;100585.66;4139970;28;20054;-68
2022/08/25 03:08:31;;;;;;;6.35;3.60;;;;;;;22.76;49.11;100590.31;4140366;28;20412;-68
2022/08/25 03:10:35;;;;;;;9.55;3.10;;;;;;;22.77;48.99;100589.41;4142656;28;20038;-68
2022/08/25 03:12:40;;;;;;;7.85;3.03;;;;;;;22.76;49.05;100595.59;4145894;28;20038;-69
2022/08/25 03:14:43;;;;;;;7.22;3.58;;;;;;;22.75;49.01;100583.25;4138180;28;20061;-68
2022/08/25 03:16:47;;;;;;;5.70;3.25;;;;;;;22.70;48.88;100590.53;4140907;28;20038;-68
2022/08/25 03:18:51;;;;;;;9.68;3.65;;;;;;;22.65;48.88;100594.19;4143316;28;20112;-68
2022/08/25 03:20:54;;;;;;;6.57;3.00;;;;;;;22.60;48.77;100589.97;4144272;28;20042;-68
2022/08/25 03:22:57;;;;;;;6.25;3.47;;;;;;;22.60;48.32;100590.81;4146769;28;20034;-68
2022/08/25 03:27:23;;;;;;;6.75;3.30;;;;;;;22.53;48.30;100591.97;4138953;28;20066;-68
2022/08/25 03:29:29;;;;;;;6.90;3.30;;;;;;;22.49;48.56;100591.19;4145709;28;20407;-68
2022/08/25 03:31:33;;;;;;;5.13;3.08;;;;;;;22.47;48.51;100589.50;4140066;28;20085;-69
2022/08/25 03:33:38;;;;;;;7.00;3.13;;;;;;;22.47;48.20;100595.69;4138035;28;20046;-69
2022/08/25 03:35:41;;;;;;;8.68;3.63;;;;;;;22.48;48.00;100600.03;4143141;28;20411;-69
2022/08/25 03:37:44;;;;;;;5.88;3.17;;;;;;;22.48;48.09;100596.53;4143684;28;20050;-68
2022/08/25 03:39:48;;;;;;;8.90;4.15;;;;;;;22.48;48.26;100593.88;4142683;28;20117;-68
2022/08/25 03:41:51;;;;;;;6.57;3.50;;;;;;;22.48;48.17;100593.88;4141317;28;20489;-69
2022/08/25 03:43:55;;;;;;;6.37;3.60;;;;;;;22.46;47.96;100599.25;4133303;28;20034;-68
2022/08/25 03:45:57;;;;;;;7.10;3.37;;;;;;;22.44;48.06;100594.91;4141085;28;20046;-69
2022/08/25 03:48:00;;;;;;;9.40;3.55;;;;;;;22.41;48.22;100595.00;4147607;28;20069;-69
2022/08/25 03:50:07;;;;;;;5.38;2.92;;;;;;;22.42;48.62;100594.09;4145807;28;20050;-70
2022/08/25 03:52:09;;;;;;;12.88;3.85;;;;;;;22.39;48.61;100584.47;4129575;28;20050;-69
2022/08/25 03:54:14;;;;;;;6.30;2.90;;;;;;;22.40;48.69;100572.06;4143956;28;20034;-69
2022/08/25 03:56:17;;;;;;;9.15;4.28;;;;;;;22.40;48.64;100575.59;4140732;28;20448;-70
2022/08/25 03:58:20;;;;;;;5.60;3.43;;;;;;;22.40;48.58;100574.72;4140610;28;20439;-69
2022/08/25 04:00:23;;;;;;;8.50;3.38;;;;;;;22.39;49.07;100571.22;4136224;28;20038;-69
2022/08/25 04:02:27;;;;;;;4.32;2.67;;;;;;;22.67;48.83;100570.28;4144617;28;20033;-69
2022/08/25 04:04:30;;;;;;;5.72;2.90;;;;;;;22.90;48.40;100577.44;4139270;28;20093;-69
2022/08/25 04:06:35;;;;;;;6.18;3.45;;;;;;;23.07;47.90;100568.00;4140220;28;20033;-69
2022/08/25 04:08:38;;;;;;;5.78;2.85;;;;;;;23.19;47.87;100572.91;4134104;28;20110;-69
2022/08/25 04:10:41;;;;;;;9.43;3.72;;;;;;;23.29;47.73;100576.97;4143153;28;20443;-69
2022/08/25 04:12:44;;;;;;;7.72;3.25;;;;;;;23.35;47.45;100576.72;4148243;28;20091;-69
2022/08/25 04:14:47;;;;;;;8.07;3.35;;;;;;;23.39;46.99;100573.97;4143509;28;20581;-69
2022/08/25 04:16:51;;;;;;;4.72;3.22;;;;;;;23.43;47.16;100583.53;4145662;28;20431;-69
2022/08/25 04:18:55;;;;;;;5.55;3.17;;;;;;;23.45;46.84;100585.22;4140074;28;20395;-68
2022/08/25 04:21:07;;;;;;;9.05;3.90;;;;;;;23.46;46.58;100586.06;4141002;28;20484;-68
2022/08/25 04:23:12;;;;;;;10.05;3.13;;;;;;;23.45;46.93;100581.69;4146021;28;20044;-68
2022/08/25 04:25:14;;;;;;;7.80;3.30;;;;;;;23.43;46.75;100586.19;4146676;28;20038;-68
2022/08/25 04:27:17;;;;;;;8.18;3.75;;;;;;;23.41;47.09;100588.91;4149718;28;20056;-69
2022/08/25 04:29:23;;;;;;;10.52;3.40;;;;;;;23.38;47.40;100588.13;4148063;28;20065;-70
2022/08/25 04:31:27;;;;;;;9.38;3.70;;;;;;;23.18;47.96;100587.09;4147344;28;20046;-70
2022/08/25 04:33:30;;;;;;;5.45;3.47;;;;;;;22.97;48.54;100594.00;4146982;28;20038;-70
2022/08/25 04:35:33;;;;;;;6.57;3.42;;;;;;;22.82;49.16;100592.72;4148129;28;20046;-69
2022/08/25 04:37:35;;;;;;;6.55;3.63;;;;;;;22.67;49.56;100602.09;4147725;28;20516;-70
2022/08/25 04:39:40;;;;;;;6.43;3.92;;;;;;;22.59;49.64;100593.50;4143882;28;20372;-70
2022/08/25 04:41:43;;;;;;;5.72;3.50;;;;;;;22.49;50.27;100603.56;4144311;28;20050;-70
2022/08/25 04:43:46;;;;;;;8.75;3.90;;;;;;;22.44;50.59;100605.50;4148807;28;20076;-70
2022/08/25 04:45:49;;;;;;;7.57;3.83;;;;;;;22.44;50.73;100594.91;4130348;28;20038;-70
2022/08/25 04:47:52;;;;;;;6.50;4.18;;;;;;;22.38;51.36;100603.06;4147648;28;20048;-70
2022/08/25 04:49:57;;;;;;;6.85;4.22;;;;;;;22.39;51.42;100599.50;4147674;28;20084;-70
2022/08/25 04:51:59;;;;;;;7.00;4.30;;;;;;;22.38;51.76;100595.09;4140322;28;20045;-70
2022/08/25 04:54:06;;;;;;;8.25;4.10;;;;;;;22.33;52.10;100589.09;4148602;28;20045;-70
2022/08/25 04:56:12;;;;;;;6.88;4.57;;;;;;;22.31;52.24;100589.09;4147643;28;20053;-70
2022/08/25 04:58:16;;;;;;;6.55;4.05;;;;;;;22.31;52.21;100587.34;4147720;28;20054;-70
2022/08/25 05:00:19;;;;;;;5.93;3.75;;;;;;;22.24;52.51;100588.44;4139803;28;20045;-70
2022/08/25 05:02:24;;;;;;;7.60;4.40;;;;;;;22.23;52.77;100585.84;4148381;28;20042;-70
2022/08/25 05:04:26;;;;;;;6.95;4.18;;;;;;;22.17;53.21;100584.25;4147429;28;20034;-70
2022/08/25 05:06:31;;;;;;;6.22;4.25;;;;;;;22.20;52.98;100585.97;4148606;28;20085;-70
2022/08/25 05:08:35;;;;;;;9.48;5.00;;;;;;;22.22;53.25;100584.09;4144946;28;20037;-70
2022/08/25 05:10:39;;;;;;;6.43;4.38;;;;;;;22.26;53.22;100591.91;4143386;28;20042;-70
2022/08/25 05:12:46;;;;;;;7.35;4.03;;;;;;;22.26;53.72;100583.97;4147297;28;20743;-70
2022/08/25 05:14:51;;;;;;;7.30;5.25;;;;;;;22.29;53.67;100588.28;4148338;28;20034;-70
2022/08/25 05:16:55;;;;;;;12.70;4.72;;;;;;;22.28;53.75;100587.44;4148458;28;20132;-70
2022/08/25 05:18:58;;;;;;;9.82;4.55;;;;;;;22.30;53.83;100588.25;4147119;28;20407;-70
2022/08/25 05:21:03;;;;;;;9.15;4.55;;;;;;;22.34;53.77;100583.75;4142221;28;20030;-70
2022/08/25 05:23:05;;;;;;;8.52;5.07;;;;;;;22.36;53.94;100586.34;4141120;28;20045;-70
2022/08/25 05:25:10;;;;;;;7.63;4.22;;;;;;;22.35;54.25;100587.25;4146370;28;20034;-70
2022/08/25 05:27:13;;;;;;;12.40;4.97;;;;;;;22.35;54.25;100579.31;4148370;28;20037;-70
2022/08/25 05:29:18;;;;;;;7.80;4.65;;;;;;;22.37;54.23;100573.06;4147541;28;20048;-70
2022/08/25 05:31:23;;;;;;;7.10;4.32;;;;;;;22.39;54.27;100570.38;4146137;28;20042;-70
2022/08/25 05:33:27;;;;;;;9.57;5.03;;;;;;;22.40;54.19;100572.06;4141135;28;20046;-70
2022/08/25 05:35:34;;;;;;;7.60;3.50;;;;;;;22.44;54.39;100573.72;4147075;28;20566;-70
2022/08/25 05:37:37;;;;;;;7.18;4.55;;;;;;;22.48;54.06;100575.34;4148222;28;20048;-70
2022/08/25 05:39:40;;;;;;;7.90;3.80;;;;;;;22.52;53.87;100571.69;4147198;28;20470;-70
2022/08/25 05:41:43;;;;;;;7.28;4.68;;;;;;;22.56;53.82;100570.66;4144076;28;20412;-70
2022/08/25 05:43:49;;;;;;;10.57;4.88;;;;;;;22.65;53.63;100578.28;4144041;28;20049;-70
2022/08/25 05:45:55;;;;;;;8.40;3.97;;;;;;;22.69;53.78;100576.38;4148243;28;20057;-70
2022/08/25 05:47:58;;;;;;;10.75;4.15;;;;;;;22.72;53.78;100580.72;4148101;28;20065;-70
2022/08/25 05:50:01;;;;;;;8.65;4.57;;;;;;;22.72;54.07;100578.97;4148022;28;20096;-70
2022/08/25 05:52:04;;;;;;;11.25;4.78;;;;;;;22.75;53.88;100576.19;4146771;28;20053;-70
2022/08/25 05:54:07;;;;;;;8.23;4.93;;;;;;;22.79;53.60;100574.28;4143758;28;20502;-70
2022/08/25 05:56:12;;;;;;;8.80;4.78;;;;;;;22.80;53.42;100574.25;4140511;28;20375;-70
2022/08/25 05:58:15;;;;;;;13.82;5.05;;;;;;;22.82;53.62;100569.75;4147935;28;20509;-70
2022/08/25 06:00:18;;;;;;;11.32;4.88;;;;;;;22.87;53.41;100569.59;4130390;28;20046;-70
2022/08/25 06:02:40;;;;;;;10.77;4.72;;;;;;;22.93;53.34;100571.16;4147751;28;20049;-70
2022/08/25 06:04:43;;;;;;;10.02;4.72;;;;;;;22.94;53.54;100567.56;4146701;28;20030;-70
2022/08/25 06:06:46;;;;;;;10.68;4.68;;;;;;;22.98;52.99;100559.47;4138376;28;20484;-70
2022/08/25 06:08:49;;;;;;;12.02;4.50;;;;;;;23.03;53.20;100567.28;4147860;28;20041;-70
2022/08/25 06:10:52;;;;;;;15.43;4.60;;;;;;;23.05;53.78;100564.56;4144989;28;20092;-70
2022/08/25 06:12:55;;;;;;;7.65;4.28;;;;;;;23.04;53.58;100562.81;4139145;28;20088;-70
2022/08/25 06:14:59;;;;;;;9.80;4.70;;;;;;;23.04;53.21;100563.69;4140439;28;20038;-70
2022/08/25 06:17:03;;;;;;;7.32;3.80;;;;;;;23.05;52.79;100565.41;4131513;28;20444;-70
2022/08/25 06:19:09;;;;;;;9.50;4.30;;;;;;;23.09;52.36;100566.19;4131573;28;20129;-70
2022/08/25 06:21:16;;;;;;;8.57;3.90;;;;;;;23.14;51.66;100569.56;4130308;28;20419;-70
2022/08/25 06:23:19;;;;;;;11.95;4.55;;;;;;;23.20;51.31;100573.78;4136943;28;20034;-70
2022/08/25 06:25:23;;;;;;;10.32;4.45;;;;;;;23.25;51.07;100578.00;4138347;28;20520;-70
2022/08/25 06:27:26;;;;;;;14.52;5.07;;;;;;;23.35;51.30;100568.78;4146604;28;20034;-70
2022/08/25 06:29:30;;;;;;;8.30;4.88;;;;;;;23.40;50.69;100573.03;4147752;28;20049;-70
2022/08/25 06:31:32;;;;;;;8.93;4.72;;;;;;;23.44;50.72;100567.56;4150981;28;20048;-70
2022/08/25 06:33:35;;;;;;;8.75;4.75;;;;;;;23.50;50.73;100566.47;4149585;28;20496;-70
2022/08/25 06:35:42;;;;;;;9.65;4.82;;;;;;;23.59;50.78;100560.78;4125178;28;20116;-70
2022/08/25 06:37:46;;;;;;;11.10;4.82;;;;;;;23.67;50.80;100557.84;4151049;28;20129;-70
2022/08/25 06:39:49;;;;;;;10.93;6.22;;;;;;;23.76;50.92;100561.91;4150815;28;20128;-70
2022/08/25 06:41:54;;;;;;;9.60;4.23;;;;;;;23.79;50.83;100561.84;4150603;28;20042;-70
2022/08/25 06:43:58;;;;;;;10.93;4.82;;;;;;;23.89;50.79;100557.91;4149608;28;20073;-70
2022/08/25 06:46:11;;;;;;;7.90;4.65;;;;;;;23.95;50.55;100567.44;4148670;28;20444;-70
2022/08/25 06:48:15;;;;;;;8.73;4.68;;;;;;;23.95;50.56;100565.63;4150686;28;20503;-70
2022/08/25 06:50:18;;;;;;;14.27;5.13;;;;;;;23.99;50.65;100558.38;4134901;28;20197;-70
2022/08/25 06:52:22;;;;;;;6.93;5.13;;;;;;;24.13;50.40;100565.81;4134188;28;20655;-70
2022/08/25 06:54:31;;;;;;;9.30;4.75;;;;;;;24.16;50.53;100555.06;4134292;28;20065;-70
2022/08/25 06:56:34;;;;;;;9.68;5.32;;;;;;;24.25;50.48;100562.66;4134975;28;20088;-70
2022/08/25 06:58:38;;;;;;;10.88;5.90;;;;;;;24.36;49.96;100564.88;4143245;28;20035;-70
2022/08/25 07:00:40;;;;;;;14.77;6.57;;;;;;;24.40;49.88;100556.72;4145816;28;20038;-71
2022/08/25 07:02:43;;;;;;;10.90;6.75;;;;;;;24.40;49.78;100551.41;4149163;28;20069;-70
2022/08/25 07:04:46;;;;;;;16.42;6.82;;;;;;;24.45;49.79;100559.16;4146289;28;20038;-70
2022/08/25 07:06:49;;;;;;;12.27;6.25;;;;;;;24.47;49.64;100556.44;4146830;28;20044;-71
2022/08/25 07:08:54;;;;;;;11.38;5.95;;;;;;;24.40;50.04;100554.06;4149531;28;20038;-70
2022/08/25 07:10:57;;;;;;;11.32;5.30;;;;;;;24.45;50.13;100555.66;4155813;28;20139;-70
2022/08/25 07:13:00;;;;;;;9.50;6.28;;;;;;;24.58;49.76;100547.06;4142038;28;20041;-70
2022/08/25 07:15:04;;;;;;;9.10;5.72;;;;;;;24.58;49.96;100549.75;4148616;28;20038;-70
2022/08/25 07:17:23;;;;;;;7.47;5.55;;;;;;;24.55;50.00;100538.38;4150240;28;20500;-70
2022/08/25 07:19:26;;;;;;;7.32;5.60;;;;;;;24.66;49.82;100540.59;4149334;28;20484;-70
2022/08/25 07:21:34;;;;;;;11.88;6.70;;;;;;;24.73;49.96;100532.28;4142019;28;20058;-70
2022/08/25 07:23:38;;;;;;;14.30;7.47;;;;;;;24.83;49.22;100539.88;4150063;28;20458;-71
2022/08/25 07:25:42;;;;;;;12.43;5.70;;;;;;;24.87;49.33;100542.34;4149038;28;20053;-70
2022/08/25 07:27:45;;;;;;;6.65;4.38;;;;;;;24.87;49.47;100542.34;4150300;28;20311;-70
2022/08/25 07:29:49;;;;;;;8.48;5.65;;;;;;;24.88;49.54;100545.84;4150117;28;20041;-70
2022/08/25 07:31:52;;;;;;;6.72;4.75;;;;;;;24.89;49.86;100536.94;4147651;28;20492;-70
2022/08/25 07:36:16;;;;;;;11.60;6.15;;;;;;;25.18;49.32;100537.44;4141771;28;20045;-71
2022/08/25 07:38:19;;;;;;;7.35;5.30;;;;;;;25.23;49.21;100538.06;4133843;28;20088;-70
2022/08/25 07:40:25;;;;;;;8.25;5.82;;;;;;;25.32;48.68;100540.38;4146041;28;20042;-70
2022/08/25 07:42:30;;;;;;;8.82;6.10;;;;;;;25.40;48.25;100540.00;4142870;28;20042;-70
2022/08/25 07:44:33;;;;;;;6.82;4.75;;;;;;;25.50;48.09;100543.97;4149757;28;20049;-70
2022/08/25 07:46:35;;;;;;;8.50;5.60;;;;;;;25.47;48.48;100544.09;4147617;28;20046;-70
2022/08/25 07:48:39;;;;;;;8.15;4.28;;;;;;;25.46;48.73;100547.69;4145321;28;20539;-70
2022/08/25 07:50:44;;;;;;;6.95;5.25;;;;;;;25.46;48.28;100541.50;4145263;28;20048;-70
2022/08/25 07:52:48;;;;;;;7.65;5.57;;;;;;;25.57;48.47;100536.56;4149656;28;20065;-70
2022/08/25 07:54:55;;;;;;;7.03;5.20;;;;;;;25.67;48.26;100531.63;4149643;28;20041;-70
2022/08/25 07:56:58;;;;;;;6.45;4.70;;;;;;;25.67;48.05;100532.53;4148661;28;20038;-70
2022/08/25 07:59:03;;;;;;;6.30;4.75;;;;;;;25.67;47.97;100542.28;4143276;28;20447;-70
2022/08/25 08:01:07;;;;;;;9.02;5.18;;;;;;;25.90;47.72;100538.53;4146974;28;20081;-70
2022/08/25 08:03:10;;;;;;;7.50;4.93;;;;;;;25.91;47.47;100542.94;4149194;28;20046;-70
2022/08/25 08:05:34;;;;;;;7.05;4.72;;;;;;;26.02;47.24;100545.09;4148421;28;20072;-70
2022/08/25 08:07:37;;;;;;;10.60;5.35;;;;;;;26.09;47.54;100544.72;4141148;28;20045;-70
2022/08/25 08:09:46;;;;;;;7.57;5.80;;;;;;;26.22;47.58;100549.44;4148190;28;20455;-69
2022/08/25 08:11:54;;;;;;;6.70;5.00;;;;;;;26.41;46.17;100544.91;4149395;28;20050;-70
2022/08/25 08:13:58;;;;;;;8.80;4.85;;;;;;;26.28;46.67;100551.78;4131940;28;20100;-69
2022/08/25 08:16:02;;;;;;;5.72;4.25;;;;;;;26.23;46.84;100553.84;4146455;28;20049;-69
2022/08/25 08:18:05;;;;;;;6.47;3.72;;;;;;;26.27;47.14;100539.44;4142280;28;20057;-69
2022/08/25 08:20:10;;;;;;;7.70;4.85;;;;;;;26.45;46.37;100535.81;4148197;28;20407;-69
2022/08/25 08:22:14;;;;;;;6.30;4.88;;;;;;;26.61;45.95;100532.38;4148920;28;20055;-68
2022/08/25 08:24:17;;;;;;;;;;;;;;;26.37;46.33;100532.69;4149493;28;20049;-70
2022/08/25 08:26:40;;;;;;;7.47;5.30;;;;;;;26.55;46.29;100535.34;4143537;28;19922;-70
2022/08/25 08:29:00;;;;;;;7.45;5.28;;;;;;;26.66;46.02;100538.31;4147039;28;20108;-70
2022/08/25 08:31:05;;;;;;;7.28;4.82;;;;;;;26.74;45.74;100544.16;4146799;28;20045;-70
2022/08/25 08:33:12;;;;;;;9.43;5.68;;;;;;;26.88;45.25;100539.88;4147403;28;20476;-70
2022/08/25 08:35:17;;;;;;;7.47;5.90;;;;;;;26.96;44.66;100543.03;4139503;28;20096;-70
2022/08/25 08:37:21;;;;;;;6.78;4.70;;;;;;;26.80;45.78;100541.16;4148867;28;20133;-69
2022/08/25 08:39:26;;;;;;;6.78;4.82;;;;;;;26.81;45.41;100542.88;4147564;28;20079;-70
2022/08/25 08:44:22;;;;;;;5.03;4.47;;;;;;;26.97;45.88;100547.41;4140658;28;20053;-69
2022/08/25 08:46:37;;;;;;;8.38;5.03;;;;;;;27.07;44.54;100546.00;4137478;28;20038;-70
2022/08/25 08:48:50;;;;;;;5.35;4.10;;;;;;;27.01;44.73;100532.94;4147350;28;20034;-69
2022/08/25 08:51:06;;;;;;;8.02;4.93;;;;;;;26.98;44.81;100527.78;4147910;28;20096;-69
2022/08/25 08:53:19;;;;;;;8.57;4.80;;;;;;;27.17;44.33;100527.66;4145184;28;20161;-69
2022/08/25 08:55:28;;;;;;;7.03;5.43;;;;;;;27.26;44.14;100527.19;4141663;28;20042;-70
2022/08/25 08:57:39;;;;;;;6.78;5.63;;;;;;;27.31;42.91;100530.44;4147352;28;20523;-70
2022/08/25 08:59:49;;;;;;;7.15;5.32;;;;;;;27.25;43.01;100527.22;4148747;28;20518;-69
2022/08/25 09:01:59;;;;;;;6.53;4.63;;;;;;;27.18;43.11;100524.91;4130078;28;20066;-69
2022/08/25 09:04:15;;;;;;;7.95;5.38;;;;;;;27.27;43.24;100520.00;4141091;28;20073;-69
2022/08/25 09:06:26;;;;;;;7.70;5.45;;;;;;;27.33;43.24;100523.22;4139939;28;20038;-70
2022/08/25 09:08:30;;;;;;;8.90;5.18;;;;;;;27.45;42.86;100527.06;4132353;28;20469;-69
2022/08/25 09:10:46;;;;;;;6.68;5.13;;;;;;;27.37;42.71;100531.09;4114960;28;20051;-69
2022/08/25 09:12:57;;;;;;;5.82;4.88;;;;;;;27.39;43.09;100531.84;4138232;28;20054;-69
2022/08/25 09:15:09;;;;;;;5.80;4.35;;;;;;;27.31;42.97;100525.09;4138750;28;20484;-69
2022/08/25 09:17:30;;;;;;;8.15;4.65;;;;;;;27.33;42.66;100522.34;4146799;28;20072;-68
2022/08/25 09:19:55;;;;;;;5.88;4.05;;;;;;;27.49;42.65;100519.72;4157938;28;20097;-69
2022/08/25 09:22:07;;;;;;;4.90;3.80;;;;;;;27.62;42.13;100517.22;4146928;28;20084;-69
2022/08/25 09:24:47;;;;;;;5.53;4.35;;;;;;;27.94;41.31;100518.06;4146434;28;20387;-69
2022/08/25 09:27:05;;;;;;;5.65;3.58;;;;;;;27.90;41.78;100521.00;4142131;28;20089;-68
2022/08/25 09:29:13;;;;;;;6.55;4.32;;;;;;;27.96;40.93;100513.47;4146021;28;20042;-68
2022/08/25 09:31:23;;;;;;;6.57;5.07;;;;;;;28.02;40.58;100514.97;4146985;28;20119;-68
2022/08/25 09:33:34;;;;;;;7.65;4.75;;;;;;;28.16;40.36;100503.47;4147962;28;20042;-69
2022/08/25 09:35:40;;;;;;;5.80;4.65;;;;;;;28.27;40.16;100502.84;4148267;28;20038;-68
2022/08/25 09:37:43;;;;;;;5.93;3.80;;;;;;;28.22;40.54;100495.09;4147275;28;20121;-69
2022/08/25 09:39:46;;;;;;;5.95;4.47;;;;;;;28.17;40.32;100500.72;4139947;28;20034;-69
2022/08/25 09:41:52;;;;;;;4.30;3.53;;;;;;;28.22;40.05;100497.75;4146439;28;20419;-68
2022/08/25 09:43:55;;;;;;;4.70;3.95;;;;;;;28.31;39.70;100499.88;4146830;28;20077;-68
2022/08/25 09:46:02;;;;;;;5.63;4.07;;;;;;;28.50;39.23;100488.97;4147026;28;20092;-68
2022/08/25 09:48:20;;;;;;;4.43;3.50;;;;;;;28.45;39.19;100490.19;4139789;28;20061;-69